Time;durP1;ratioP1;P1;durP2;ratioP2;P2;SDS_P1;SDS_P2;PMS_P1;PMS_P2;Temp;Humidity;BMP_temperature;BMP_pressure;BME280_temperature;BME280_humidity;BME280_pressure;Samples;Min_cycle;Max_cycle;Signal;HPM_P1;HPM_P2
2022/01/29 00:01:03;;;;;;;12.50;0.60;;;;;;;-1.79;81.72;100415.05;103643;1299;24471;-27
2022/01/29 00:03:30;;;;;;;3.40;1.10;;;;;;;-2.03;83.02;100423.36;103915;1299;24341;-27
2022/01/29 00:05:58;;;;;;;4.10;2.30;;;;;;;-1.79;82.17;100425.77;103914;1299;24142;-25
2022/01/29 00:08:24;;;;;;;4.10;1.40;;;;;;;-1.99;82.59;100426.41;103920;1299;24266;-31
2022/01/29 00:10:54;;;;;;;5.70;1.50;;;;;;;-2.04;82.77;100423.94;103880;1299;24350;-26
2022/01/29 00:13:20;;;;;;;5.10;1.20;;;;;;;-2.30;83.91;100421.77;103877;1297;24465;-31
2022/01/29 00:15:45;;;;;;;3.00;0.80;;;;;;;-2.21;83.82;100420.89;103910;1297;24222;-26
2022/01/29 00:18:11;;;;;;;5.20;1.30;;;;;;;-2.18;83.68;100421.61;103865;1299;24209;-29
2022/01/29 00:20:37;;;;;;;2.60;0.70;;;;;;;-2.21;83.53;100424.05;103933;1299;24221;-27
2022/01/29 00:23:03;;;;;;;1.00;0.80;;;;;;;-2.48;84.75;100423.53;103957;1299;24316;-31
2022/01/29 00:25:28;;;;;;;4.60;2.10;;;;;;;-2.49;84.93;100426.89;103840;1297;24229;-31
2022/01/29 00:27:56;;;;;;;3.00;0.50;;;;;;;-2.23;84.21;100425.20;103868;1299;24727;-30
2022/01/29 00:30:29;;;;;;;3.30;1.50;;;;;;;-2.43;84.99;100422.33;103830;1297;24284;-25
2022/01/29 00:32:55;;;;;;;;;;;;;;;-2.53;86.35;100419.23;103974;1299;22594;-26
2022/01/29 00:35:21;;;;;;;3.50;1.60;;;;;;;-2.48;86.53;100415.30;103859;1299;24282;-25
2022/01/29 00:37:47;;;;;;;5.10;1.30;;;;;;;-2.47;86.86;100413.29;103853;1300;24220;-30
2022/01/29 00:40:13;;;;;;;2.60;1.60;;;;;;;-2.41;86.69;100412.92;103891;1297;22507;-25
2022/01/29 00:42:39;;;;;;;2.90;0.80;;;;;;;-2.29;86.24;100411.55;103900;1297;24312;-25
2022/01/29 00:45:06;;;;;;;9.20;1.30;;;;;;;-2.26;85.57;100411.17;103896;1299;22524;-25
2022/01/29 00:47:33;;;;;;;6.80;2.30;;;;;;;-2.22;85.84;100413.95;103891;1297;23415;-26
2022/01/29 00:49:59;;;;;;;6.50;1.40;;;;;;;-2.20;85.66;100416.31;103919;1297;24226;-25
2022/01/29 00:52:24;;;;;;;8.50;1.00;;;;;;;-2.14;85.34;100417.98;103977;1297;24210;-31
2022/01/29 00:54:50;;;;;;;9.00;1.70;;;;;;;-2.14;85.13;100421.87;103846;1299;24205;-30
2022/01/29 00:57:16;;;;;;;5.70;2.60;;;;;;;-2.08;84.69;100426.97;103960;1297;24209;-30
2022/01/29 00:59:42;;;;;;;4.60;0.90;;;;;;;-1.93;84.25;100427.16;103947;1299;24203;-29
2022/01/29 01:02:09;;;;;;;4.30;1.00;;;;;;;-2.09;84.05;100425.98;103917;1299;24328;-30
2022/01/29 01:04:38;;;;;;;3.30;0.90;;;;;;;-2.09;84.35;100428.40;103981;1300;24213;-30
2022/01/29 01:07:06;;;;;;;3.20;1.20;;;;;;;-2.08;83.91;100423.63;103872;1299;24313;-25
2022/01/29 01:09:32;;;;;;;7.20;1.00;;;;;;;-2.08;83.55;100419.63;103914;1299;24323;-30
2022/01/29 01:11:58;;;;;;;4.50;1.20;;;;;;;-2.11;83.08;100417.16;103726;1299;22510;-30
2022/01/29 01:14:23;;;;;;;4.00;1.00;;;;;;;-2.14;83.24;100417.52;103914;1297;24282;-30
2022/01/29 01:16:49;;;;;;;7.30;2.40;;;;;;;-2.14;83.09;100416.80;103883;1297;24278;-30
2022/01/29 01:19:15;;;;;;;5.30;1.60;;;;;;;-1.82;81.62;100415.06;103901;1300;23225;-28
2022/01/29 01:21:40;;;;;;;4.20;1.20;;;;;;;-1.97;81.59;100410.90;103867;1299;24200;-30
2022/01/29 01:24:06;;;;;;;6.30;1.60;;;;;;;-2.00;81.71;100410.54;103861;1298;22523;-30
2022/01/29 01:26:32;;;;;;;9.20;1.70;;;;;;;-2.06;82.04;100407.92;103884;1299;24289;-30
2022/01/29 01:28:58;;;;;;;0.70;0.20;;;;;;;-2.20;82.65;100405.78;103862;1299;24256;-30
2022/01/29 01:31:24;;;;;;;4.10;0.50;;;;;;;-2.21;83.07;100403.88;103926;1299;25372;-25
2022/01/29 01:33:50;;;;;;;2.30;0.90;;;;;;;-2.23;83.56;100404.39;103904;1298;24325;-31
2022/01/29 01:36:20;;;;;;;2.80;0.60;;;;;;;-2.05;82.38;100403.97;103831;1298;24166;-24
2022/01/29 01:38:51;;;;;;;4.00;1.30;;;;;;;-2.20;83.31;100404.17;103910;1297;24185;-32
2022/01/29 01:41:23;;;;;;;3.60;1.20;;;;;;;-2.42;84.22;100396.33;103896;1297;24197;-31
2022/01/29 01:43:48;;;;;;;2.70;0.80;;;;;;;-2.46;84.57;100390.45;103898;1297;24214;-30
2022/01/29 01:46:14;;;;;;;7.40;1.50;;;;;;;-2.45;84.59;100390.89;103923;1299;24413;-26
2022/01/29 01:48:40;;;;;;;5.40;1.70;;;;;;;-2.43;84.37;100384.48;103894;1297;24222;-28
2022/01/29 01:51:06;;;;;;;2.60;0.80;;;;;;;-2.28;83.72;100377.09;103921;1299;24193;-29
2022/01/29 01:53:32;;;;;;;1.70;0.70;;;;;;;-2.19;83.14;100370.41;103595;1297;24247;-31
2022/01/29 01:55:58;;;;;;;6.00;1.00;;;;;;;-2.17;83.03;100367.65;103916;1299;24306;-30
2022/01/29 01:58:23;;;;;;;2.80;0.70;;;;;;;-2.18;83.10;100365.45;103902;1299;22512;-30
2022/01/29 02:00:49;;;;;;;4.40;1.40;;;;;;;-2.13;82.87;100360.95;103838;1297;24141;-26
2022/01/29 02:03:15;;;;;;;6.50;2.10;;;;;;;-1.97;82.20;100357.87;103895;1299;24251;-25
2022/01/29 02:05:41;;;;;;;7.80;1.10;;;;;;;-2.07;82.91;100357.21;103720;1298;24253;-29
2022/01/29 02:08:08;;;;;;;3.20;0.90;;;;;;;-2.02;82.41;100351.65;103898;1297;24211;-25
2022/01/29 02:10:34;;;;;;;4.50;1.40;;;;;;;-1.96;82.57;100352.22;103918;1299;22607;-28
2022/01/29 02:13:03;;;;;;;5.20;1.40;;;;;;;-1.87;82.08;100347.98;103833;1299;24293;-31
2022/01/29 02:15:29;;;;;;;8.10;1.40;;;;;;;-1.98;82.44;100346.16;103941;1299;25361;-26
2022/01/29 02:17:56;;;;;;;2.60;1.00;;;;;;;-1.81;82.00;100341.44;103921;1299;24297;-31
2022/01/29 02:20:23;;;;;;;2.20;0.50;;;;;;;-1.77;81.60;100340.34;103881;1299;22521;-31
2022/01/29 02:22:49;;;;;;;4.40;0.70;;;;;;;-1.56;81.04;100335.14;103870;1299;23838;-26
2022/01/29 02:25:29;;;;;;;1.90;0.80;;;;;;;-1.54;80.71;100333.28;103866;1299;24299;-24
2022/01/29 02:27:57;;;;;;;7.40;2.10;;;;;;;-1.65;81.36;100330.83;103946;1297;22596;-30
2022/01/29 02:30:23;;;;;;;2.50;1.00;;;;;;;-1.36;80.47;100325.98;103893;1297;24381;-30
2022/01/29 02:32:49;;;;;;;3.60;1.40;;;;;;;-1.22;80.10;100321.05;103884;1297;22509;-30
2022/01/29 02:35:14;;;;;;;9.90;3.00;;;;;;;-1.10;80.01;100324.66;103879;1297;24257;-29
2022/01/29 02:37:40;;;;;;;6.20;2.50;;;;;;;-1.20;80.62;100318.42;103829;1299;24366;-25
2022/01/29 02:40:06;;;;;;;4.50;2.50;;;;;;;-1.18;81.03;100317.81;103855;1297;24399;-32
2022/01/29 02:42:32;;;;;;;4.60;2.20;;;;;;;-1.10;80.86;100315.54;103874;1299;24255;-30
2022/01/29 02:44:58;;;;;;;30.60;4.20;;;;;;;-1.18;81.76;100309.00;103902;1297;23937;-25
2022/01/29 02:47:27;;;;;;;1.90;0.90;;;;;;;-1.05;81.38;100310.42;103724;1298;24314;-30
2022/01/29 02:49:52;;;;;;;21.40;1.80;;;;;;;-1.04;81.66;100307.42;103940;1299;24500;-25
2022/01/29 02:52:18;;;;;;;7.10;2.80;;;;;;;-0.97;81.58;100306.38;103864;1297;22515;-29
2022/01/29 02:54:44;;;;;;;7.00;2.30;;;;;;;-1.13;82.67;100306.73;103881;1299;24285;-27
2022/01/29 02:57:10;;;;;;;6.70;1.00;;;;;;;-1.28;83.76;100306.31;103881;1297;24242;-25
2022/01/29 02:59:35;;;;;;;2.30;0.80;;;;;;;-1.48;84.64;100304.07;103952;1297;24243;-31
2022/01/29 03:02:01;;;;;;;5.80;2.40;;;;;;;-1.56;85.17;100306.56;103877;1299;24279;-26
2022/01/29 03:04:27;;;;;;;6.60;2.90;;;;;;;-1.64;86.14;100304.94;103905;1297;24170;-26
2022/01/29 03:06:52;;;;;;;7.50;1.60;;;;;;;-1.49;86.24;100302.71;103783;1299;24332;-31
2022/01/29 03:09:18;;;;;;;15.70;3.30;;;;;;;-1.46;86.40;100302.04;103867;1297;24402;-26
2022/01/29 03:11:44;;;;;;;3.90;1.80;;;;;;;-1.47;86.61;100295.41;103913;1297;24181;-27
2022/01/29 03:14:09;;;;;;;3.00;0.90;;;;;;;-1.37;86.79;100301.30;103882;1297;24272;-31
2022/01/29 03:16:35;;;;;;;1.60;0.60;;;;;;;-1.56;87.11;100298.79;103882;1299;24368;-28
2022/01/29 03:19:01;;;;;;;6.50;2.00;;;;;;;-1.47;87.01;100298.08;103867;1297;24311;-25
2022/01/29 03:21:27;;;;;;;3.70;1.10;;;;;;;-1.56;87.13;100293.00;103838;1297;24312;-29
2022/01/29 03:23:52;;;;;;;2.80;1.60;;;;;;;-1.77;88.49;100294.17;103848;1299;24290;-30
2022/01/29 03:26:18;;;;;;;11.80;1.60;;;;;;;-1.55;88.05;100294.67;103895;1297;24325;-30
2022/01/29 03:28:44;;;;;;;7.30;1.30;;;;;;;-1.56;87.47;100295.08;103835;1299;24328;-25
2022/01/29 03:31:09;;;;;;;4.00;1.20;;;;;;;-1.74;88.63;100289.27;103970;1299;24246;-29
2022/01/29 03:33:35;;;;;;;2.20;0.80;;;;;;;-1.62;88.64;100281.48;103894;1297;24404;-29
2022/01/29 03:36:02;;;;;;;4.30;1.40;;;;;;;-1.85;89.32;100277.78;103865;1297;22623;-29
2022/01/29 03:38:28;;;;;;;5.60;1.20;;;;;;;-2.07;90.52;100269.86;103970;1297;24220;-30
2022/01/29 03:40:56;;;;;;;16.90;3.00;;;;;;;-2.15;91.37;100266.64;103794;1297;24292;-24
2022/01/29 03:43:28;;;;;;;5.50;0.90;;;;;;;-2.17;91.87;100263.11;103914;1297;24170;-29
2022/01/29 03:45:54;;;;;;;13.30;1.30;;;;;;;-2.20;92.39;100258.21;103943;1299;24264;-25
2022/01/29 03:48:20;;;;;;;6.50;0.50;;;;;;;-2.24;92.60;100263.73;103827;1297;24168;-29
2022/01/29 03:50:45;;;;;;;4.50;1.40;;;;;;;-2.19;92.35;100260.27;103878;1299;22520;-27
2022/01/29 03:53:11;;;;;;;5.30;1.60;;;;;;;-2.26;92.90;100267.02;103906;1298;24193;-29
2022/01/29 03:55:37;;;;;;;12.20;1.00;;;;;;;-2.16;92.93;100270.04;103949;1297;24262;-25
2022/01/29 03:58:03;;;;;;;2.70;1.20;;;;;;;-2.18;93.01;100264.21;103878;1296;24315;-29
2022/01/29 04:00:29;;;;;;;9.40;1.60;;;;;;;-2.16;93.17;100262.70;103918;1299;25894;-30
2022/01/29 04:02:54;;;;;;;2.20;0.80;;;;;;;-2.23;93.58;100256.65;103675;1299;24376;-25
2022/01/29 04:05:20;;;;;;;9.10;1.10;;;;;;;-2.19;94.07;100257.09;103819;1297;24212;-30
2022/01/29 04:07:46;;;;;;;9.30;1.50;;;;;;;-2.11;94.17;100257.31;103938;1299;24292;-29
2022/01/29 04:10:12;;;;;;;5.30;1.40;;;;;;;-1.99;94.25;100257.98;102915;1297;1460483;-26
2022/01/29 04:12:44;;;;;;;5.70;1.40;;;;;;;-1.97;94.51;100258.33;103902;1297;24323;-25
2022/01/29 04:15:10;;;;;;;9.30;2.20;;;;;;;-1.81;94.46;100253.83;103858;1299;24296;-30
2022/01/29 04:17:36;;;;;;;3.10;0.90;;;;;;;-1.76;94.12;100253.17;103885;1297;24313;-27
2022/01/29 04:20:03;;;;;;;2.40;1.10;;;;;;;-1.70;94.06;100244.88;103824;1299;24342;-30
2022/01/29 04:22:29;;;;;;;11.70;1.60;;;;;;;-1.71;93.91;100240.91;103881;1297;22518;-30
2022/01/29 04:24:54;;;;;;;7.70;1.50;;;;;;;-1.78;94.23;100232.06;103885;1299;24243;-29
2022/01/29 04:27:30;;;;;;;6.20;1.30;;;;;;;-1.64;93.90;100221.86;103883;1297;24338;-29
2022/01/29 04:29:59;;;;;;;7.90;1.90;;;;;;;-1.66;93.59;100213.42;103880;1297;24268;-29
2022/01/29 04:32:45;;;;;;;9.00;1.50;;;;;;;-1.76;93.73;100211.45;103876;1297;22512;-29
2022/01/29 04:35:11;;;;;;;12.00;2.30;;;;;;;-1.78;94.17;100205.56;103888;1299;24173;-30
2022/01/29 04:37:36;;;;;;;7.80;1.20;;;;;;;-1.87;94.07;100198.76;103895;1299;24328;-30
2022/01/29 04:40:03;;;;;;;5.10;1.50;;;;;;;-1.70;93.91;100204.34;103885;1297;24444;-25
2022/01/29 04:42:29;;;;;;;11.70;1.60;;;;;;;-1.79;94.51;100207.54;103933;1297;24221;-25
2022/01/29 04:44:55;;;;;;;6.20;1.00;;;;;;;-1.74;94.82;100209.88;103774;1299;24348;-30
2022/01/29 04:47:20;;;;;;;16.00;2.20;;;;;;;-1.71;95.16;100211.65;103867;1299;24330;-24
2022/01/29 04:49:49;;;;;;;15.00;1.00;;;;;;;-1.54;94.71;100216.13;103938;1297;24342;-31
2022/01/29 04:52:14;;;;;;;9.20;1.20;;;;;;;-1.57;94.67;100211.58;103901;1297;24446;-24
2022/01/29 04:54:40;;;;;;;2.80;0.80;;;;;;;-1.54;94.96;100215.93;103934;1297;24372;-31
2022/01/29 04:57:06;;;;;;;13.60;1.90;;;;;;;-1.54;94.69;100214.91;103865;1297;24228;-32
2022/01/29 04:59:31;;;;;;;2.50;0.80;;;;;;;-1.53;94.62;100211.50;103877;1297;24649;-32
2022/01/29 05:01:57;;;;;;;5.80;1.40;;;;;;;-1.52;94.59;100211.29;103892;1297;24227;-25
2022/01/29 05:04:24;;;;;;;9.50;2.50;;;;;;;-1.58;94.62;100208.17;103903;1297;24273;-30
2022/01/29 05:06:49;;;;;;;10.80;2.20;;;;;;;-1.65;94.66;100201.94;103982;1297;24437;-30
2022/01/29 05:09:15;;;;;;;9.60;1.50;;;;;;;-1.63;94.59;100198.42;103923;1297;24210;-27
2022/01/29 05:11:45;;;;;;;7.30;1.30;;;;;;;-1.58;93.97;100191.27;103899;1297;24328;-25
2022/01/29 05:14:19;;;;;;;6.90;2.20;;;;;;;-1.52;93.18;100190.56;103952;1299;24219;-29
2022/01/29 05:26:50;;;;;;;8.90;2.20;;;;;;;-1.70;93.59;100191.73;103796;1297;24302;-25
2022/01/29 05:27:02;;;;;;;6.40;1.20;;;;;;;-1.71;93.09;100184.41;103931;1299;24325;-25
2022/01/29 05:29:31;;;;;;;6.60;1.20;;;;;;;-1.65;92.86;100182.46;103897;1299;24230;-31
2022/01/29 05:31:58;;;;;;;15.20;3.00;;;;;;;-1.83;93.22;100179.16;103941;1297;24211;-31
2022/01/29 05:34:24;;;;;;;5.00;1.50;;;;;;;-2.06;94.31;100176.48;103880;1299;24182;-25
2022/01/29 05:36:50;;;;;;;12.30;1.80;;;;;;;-2.22;94.97;100176.73;103757;1297;24319;-30
2022/01/29 05:39:16;;;;;;;5.50;1.80;;;;;;;-2.09;94.97;100167.69;103888;1297;24199;-25
2022/01/29 05:41:42;;;;;;;9.00;1.40;;;;;;;-2.09;94.94;100163.10;103984;1299;24194;-26
2022/01/29 05:44:08;;;;;;;16.40;2.80;;;;;;;-2.04;94.75;100162.81;103922;1297;24249;-31
2022/01/29 05:46:34;;;;;;;4.30;2.20;;;;;;;-2.21;94.98;100162.83;103891;1297;24229;-27
2022/01/29 05:48:59;;;;;;;5.90;2.10;;;;;;;-2.13;95.25;100156.19;103891;1297;24313;-28
2022/01/29 05:51:29;;;;;;;13.20;2.10;;;;;;;-2.29;95.32;100156.17;103927;1299;24203;-30
2022/01/29 05:53:57;;;;;;;8.70;2.60;;;;;;;-2.49;95.95;100154.42;103673;1299;24195;-26
2022/01/29 05:56:23;;;;;;;6.70;1.50;;;;;;;-2.48;96.58;100144.34;103902;1299;24432;-30
2022/01/29 05:58:49;;;;;;;6.00;1.70;;;;;;;-2.42;96.46;100139.77;103908;1297;24338;-26
2022/01/29 06:01:15;;;;;;;3.80;1.70;;;;;;;-2.29;95.86;100134.95;103877;1299;24176;-30
2022/01/29 06:03:40;;;;;;;20.60;3.30;;;;;;;-2.25;95.73;100128.70;103856;1297;24468;-24
2022/01/29 06:06:06;;;;;;;14.60;4.20;;;;;;;-2.26;95.57;100125.42;103826;1299;24382;-29
2022/01/29 06:08:32;;;;;;;12.60;4.20;;;;;;;-2.41;95.79;100120.97;103855;1297;24267;-27
2022/01/29 06:10:57;;;;;;;17.10;3.70;;;;;;;-2.54;96.37;100116.66;103842;1297;24321;-27
2022/01/29 06:13:23;;;;;;;9.80;2.60;;;;;;;-2.37;96.72;100113.69;103819;1296;24314;-27
2022/01/29 06:15:50;;;;;;;7.80;1.30;;;;;;;-2.52;96.90;100111.66;103836;1297;24216;-31
2022/01/29 06:18:19;;;;;;;9.20;1.80;;;;;;;-2.58;97.30;100103.27;103883;1299;24213;-25
2022/01/29 06:20:46;;;;;;;14.80;2.70;;;;;;;-2.61;97.73;100103.64;103905;1297;22616;-25
2022/01/29 06:23:13;;;;;;;19.60;3.30;;;;;;;-2.58;98.02;100098.38;103906;1299;24302;-25
2022/01/29 06:25:39;;;;;;;16.40;6.30;;;;;;;-2.46;98.10;100094.23;103929;1299;24426;-24
2022/01/29 06:28:04;;;;;;;17.30;4.80;;;;;;;-2.49;98.15;100102.48;103915;1299;24233;-25
2022/01/29 06:30:30;;;;;;;10.50;4.40;;;;;;;-2.44;98.21;100100.65;103746;1299;24218;-30
2022/01/29 06:32:56;;;;;;;8.10;3.10;;;;;;;-2.33;98.31;100095.01;103861;1297;24352;-25
2022/01/29 06:35:22;;;;;;;7.80;3.10;;;;;;;-2.26;98.35;100091.94;103872;1297;24328;-25
2022/01/29 06:37:48;;;;;;;20.60;3.30;;;;;;;-2.06;98.20;100100.48;103807;1299;24155;-25
2022/01/29 06:40:14;;;;;;;14.80;2.90;;;;;;;-2.04;97.80;100101.55;103817;1299;22965;-23
2022/01/29 06:42:40;;;;;;;13.40;3.70;;;;;;;-1.76;97.17;100097.30;103910;1297;22652;-32
2022/01/29 06:45:06;;;;;;;12.40;3.00;;;;;;;-1.57;95.32;100095.86;103927;1299;24217;-27
2022/01/29 06:47:32;;;;;;;17.10;1.50;;;;;;;-1.44;94.07;100092.58;103664;1299;24302;-25
2022/01/29 06:49:58;;;;;;;11.90;2.30;;;;;;;-1.50;93.68;100092.22;103913;1299;24248;-27
2022/01/29 06:52:23;;;;;;;12.50;2.40;;;;;;;-1.37;92.99;100085.53;103928;1298;24357;-30
2022/01/29 06:54:49;;;;;;;6.00;1.10;;;;;;;-1.34;92.54;100077.16;103870;1297;24256;-27
2022/01/29 06:57:15;;;;;;;7.20;1.70;;;;;;;-1.45;92.58;100065.23;103921;1299;22743;-30
2022/01/29 06:59:40;;;;;;;14.90;2.40;;;;;;;-1.60;93.59;100062.00;104051;1297;24311;-30
2022/01/29 07:02:07;;;;;;;9.80;2.80;;;;;;;-1.62;94.01;100056.85;103790;1298;22873;-25
2022/01/29 07:04:32;;;;;;;19.20;2.60;;;;;;;-1.62;94.32;100054.58;103910;1297;24297;-30
2022/01/29 07:06:58;;;;;;;5.10;1.90;;;;;;;-1.62;94.54;100051.80;103869;1297;24342;-25
2022/01/29 07:09:23;;;;;;;3.60;1.00;;;;;;;-1.47;94.24;100056.59;103896;1297;24320;-30
2022/01/29 07:11:55;;;;;;;21.10;3.00;;;;;;;-1.42;93.66;100055.89;103833;1297;22642;-25
2022/01/29 07:14:21;;;;;;;12.10;2.00;;;;;;;-1.45;94.21;100059.96;103859;1297;24372;-25
2022/01/29 07:16:46;;;;;;;9.00;2.10;;;;;;;-1.46;94.52;100063.71;103909;1297;24299;-30
2022/01/29 07:19:12;;;;;;;11.10;2.80;;;;;;;-1.33;94.50;100052.66;103896;1299;24221;-25
2022/01/29 07:21:38;;;;;;;18.30;2.60;;;;;;;-1.36;94.22;100041.77;103863;1299;24434;-30
2022/01/29 07:24:04;;;;;;;7.40;3.10;;;;;;;-1.32;94.12;100029.73;103916;1299;24242;-30
2022/01/29 07:26:30;;;;;;;18.30;3.10;;;;;;;-1.29;93.92;100026.02;103901;1297;24195;-27
2022/01/29 07:28:56;;;;;;;16.30;3.60;;;;;;;-1.23;93.95;100021.34;103901;1297;24223;-30
2022/01/29 07:31:22;;;;;;;14.20;3.10;;;;;;;-1.14;93.69;100015.30;103922;1299;22658;-30
2022/01/29 07:33:48;;;;;;;28.40;3.40;;;;;;;-1.08;93.34;100021.55;103884;1297;22864;-29
2022/01/29 07:36:13;;;;;;;7.70;2.60;;;;;;;-1.07;93.48;100027.27;103837;1297;24301;-30
2022/01/29 07:38:39;;;;;;;10.70;4.50;;;;;;;-1.02;93.49;100024.64;103859;1299;22705;-32
2022/01/29 07:41:05;;;;;;;9.60;3.50;;;;;;;-0.87;92.49;100021.48;103854;1297;22505;-30
2022/01/29 07:43:31;;;;;;;13.20;3.60;;;;;;;-0.89;92.15;100003.14;103901;1297;24183;-25
2022/01/29 07:45:56;;;;;;;18.80;3.40;;;;;;;-0.86;92.28;99992.42;103866;1299;24317;-30
2022/01/29 07:48:23;;;;;;;22.70;3.60;;;;;;;-0.76;92.22;99991.85;103885;1297;24470;-27
2022/01/29 07:50:50;;;;;;;12.20;4.10;;;;;;;-0.69;91.78;99989.09;103912;1297;24197;-25
2022/01/29 07:53:16;;;;;;;18.80;3.40;;;;;;;-0.52;91.97;99988.19;103886;1299;24314;-30
2022/01/29 07:55:43;;;;;;;14.50;3.90;;;;;;;-0.47;90.69;99983.95;103873;1297;23935;-25
2022/01/29 07:58:10;;;;;;;21.20;3.70;;;;;;;-0.42;90.90;99986.62;103900;1296;24305;-25
2022/01/29 08:00:36;;;;;;;15.70;3.50;;;;;;;-0.30;90.29;99984.46;103917;1299;24298;-30
2022/01/29 08:03:01;;;;;;;17.10;3.80;;;;;;;-0.24;90.11;99974.67;103846;1299;24216;-30
2022/01/29 08:05:27;;;;;;;18.30;3.60;;;;;;;-0.18;90.20;99969.31;103791;1299;24366;-29
2022/01/29 08:07:53;;;;;;;23.70;4.30;;;;;;;-0.09;90.21;99959.33;103878;1297;24237;-25
2022/01/29 08:10:19;;;;;;;17.40;3.30;;;;;;;-0.11;89.91;99954.03;103857;1299;24317;-32
2022/01/29 08:12:44;;;;;;;11.50;2.30;;;;;;;-0.01;90.31;99943.79;103875;1296;24319;-25
2022/01/29 08:15:10;;;;;;;29.60;4.30;;;;;;;0.08;89.88;99938.37;103840;1297;24361;-26
2022/01/29 08:17:36;;;;;;;6.20;2.20;;;;;;;0.11;89.74;99936.06;103859;1299;22663;-25
2022/01/29 08:20:02;;;;;;;10.60;2.70;;;;;;;0.14;89.71;99931.38;103866;1297;24245;-28
2022/01/29 08:22:28;;;;;;;4.60;1.80;;;;;;;0.18;89.32;99925.08;103893;1299;22529;-25
2022/01/29 08:24:54;;;;;;;8.20;3.00;;;;;;;0.29;89.29;99925.10;103888;1299;24278;-30
2022/01/29 08:27:20;;;;;;;17.40;4.10;;;;;;;0.30;89.42;99929.98;103947;1299;22519;-25
2022/01/29 08:29:46;;;;;;;7.70;2.30;;;;;;;0.39;89.33;99932.05;103867;1299;24213;-25
2022/01/29 08:32:12;;;;;;;5.10;2.80;;;;;;;0.47;89.42;99929.20;103706;1299;24168;-25
2022/01/29 08:34:39;;;;;;;8.60;2.60;;;;;;;0.78;87.76;99921.84;103856;1299;24249;-30
2022/01/29 08:37:05;;;;;;;10.50;2.10;;;;;;;0.82;86.32;99917.09;103783;1299;24315;-30
2022/01/29 08:39:32;;;;;;;8.70;2.60;;;;;;;0.75;85.61;99918.93;103899;1297;24234;-26
2022/01/29 08:41:58;;;;;;;15.30;3.60;;;;;;;0.93;85.25;99914.61;103810;1299;24178;-30
2022/01/29 08:44:24;;;;;;;7.50;2.10;;;;;;;0.80;85.10;99911.42;103690;1298;24249;-25
2022/01/29 08:46:49;;;;;;;16.80;2.90;;;;;;;0.79;85.68;99914.87;103958;1299;24218;-30
2022/01/29 08:49:15;;;;;;;7.50;2.60;;;;;;;0.89;85.81;99910.04;103845;1299;24303;-25
2022/01/29 08:51:41;;;;;;;15.80;3.10;;;;;;;0.98;86.45;99903.64;103866;1299;24299;-24
2022/01/29 08:54:07;;;;;;;20.00;3.60;;;;;;;1.20;85.59;99898.90;103919;1299;24253;-25
2022/01/29 08:56:33;;;;;;;11.50;2.40;;;;;;;1.44;84.12;99896.73;104035;1298;24290;-30
2022/01/29 08:58:59;;;;;;;12.00;2.90;;;;;;;1.66;81.89;99890.34;103794;1299;24223;-30
2022/01/29 09:01:25;;;;;;;16.70;3.00;;;;;;;1.75;81.21;99885.38;103854;1299;24196;-30
2022/01/29 09:03:51;;;;;;;10.10;2.10;;;;;;;1.77;80.94;99886.26;103848;1299;24239;-30
2022/01/29 09:06:16;;;;;;;11.90;2.50;;;;;;;1.91;79.77;99885.80;103812;1299;24353;-24
2022/01/29 09:08:46;;;;;;;7.60;2.70;;;;;;;1.85;80.13;99891.08;103860;1297;24389;-25
2022/01/29 09:11:12;;;;;;;6.80;2.70;;;;;;;1.71;81.77;99897.15;103847;1297;24250;-30
2022/01/29 09:13:38;;;;;;;15.70;2.70;;;;;;;1.75;81.61;99904.23;103859;1297;24193;-24
2022/01/29 09:16:04;;;;;;;9.70;3.00;;;;;;;2.10;79.74;99895.77;103824;1299;24270;-30
2022/01/29 09:18:30;;;;;;;7.80;3.00;;;;;;;2.22;78.72;99893.94;103846;1297;24170;-30
2022/01/29 09:20:55;;;;;;;8.40;2.70;;;;;;;1.91;79.54;99892.66;103854;1297;24162;-25
2022/01/29 09:23:21;;;;;;;26.10;4.80;;;;;;;1.89;80.22;99891.58;103778;1299;24224;-30
2022/01/29 09:25:47;;;;;;;11.40;2.40;;;;;;;2.01;79.87;99896.23;103842;1297;24311;-30
2022/01/29 09:28:13;;;;;;;17.60;3.20;;;;;;;2.16;78.95;99881.05;103879;1298;24249;-26
2022/01/29 09:30:38;;;;;;;11.90;2.90;;;;;;;2.42;77.66;99877.05;103773;1299;24288;-31
2022/01/29 09:33:04;;;;;;;15.80;3.40;;;;;;;2.39;78.05;99867.89;103819;1297;24221;-29
2022/01/29 09:35:29;;;;;;;7.00;2.60;;;;;;;2.51;77.56;99857.89;103746;1297;24348;-32
2022/01/29 09:37:55;;;;;;;9.90;3.40;;;;;;;2.71;76.25;99837.73;103843;1297;24183;-29
2022/01/29 09:40:21;;;;;;;11.70;2.30;;;;;;;2.83;75.60;99828.48;103841;1297;24178;-24
2022/01/29 09:42:50;;;;;;;11.90;3.80;;;;;;;3.10;74.61;99823.29;103893;1297;22517;-24
2022/01/29 09:45:18;;;;;;;5.80;2.30;;;;;;;2.71;75.51;99833.82;103850;1299;22691;-27
2022/01/29 09:47:44;;;;;;;10.30;2.70;;;;;;;2.79;75.70;99820.75;103882;1297;24345;-25
2022/01/29 09:50:11;;;;;;;7.20;2.50;;;;;;;3.01;74.96;99821.09;103847;1298;26262;-29
2022/01/29 09:52:37;;;;;;;23.00;2.00;;;;;;;2.68;76.61;99809.69;103865;1297;22784;-25
2022/01/29 09:55:03;;;;;;;10.30;1.80;;;;;;;2.88;76.18;99810.93;103795;1299;22521;-25
2022/01/29 09:57:30;;;;;;;15.00;2.30;;;;;;;2.79;76.77;99811.15;103797;1297;24253;-24
2022/01/29 09:59:55;;;;;;;19.00;3.40;;;;;;;3.17;75.26;99803.33;103786;1297;24241;-27
2022/01/29 10:02:21;;;;;;;19.00;3.30;;;;;;;2.75;76.46;99799.23;103726;1299;24261;-32
2022/01/29 10:04:48;;;;;;;23.60;3.30;;;;;;;2.76;76.90;99797.73;103863;1298;24208;-27
2022/01/29 10:07:16;;;;;;;12.30;2.90;;;;;;;3.20;75.52;99784.52;103868;1297;24282;-32
2022/01/29 10:09:41;;;;;;;13.50;3.30;;;;;;;2.73;77.44;99791.35;103942;1299;24312;-29
2022/01/29 10:12:30;;;;;;;8.40;2.00;;;;;;;2.83;77.47;99783.75;103898;1299;24367;-29
2022/01/29 10:14:57;;;;;;;9.10;2.60;;;;;;;2.32;80.17;99789.73;103867;1299;24340;-25
2022/01/29 10:17:29;;;;;;;10.80;3.00;;;;;;;2.48;80.04;99786.22;103846;1297;24136;-25
2022/01/29 10:20:07;;;;;;;9.40;3.10;;;;;;;2.66;79.84;99780.01;103903;1299;22796;-30
2022/01/29 10:22:34;;;;;;;9.10;1.80;;;;;;;2.65;79.51;99775.08;103890;1299;22630;-30
2022/01/29 10:25:01;;;;;;;10.70;3.00;;;;;;;2.89;78.62;99769.11;103800;1297;24369;-25
2022/01/29 10:27:27;;;;;;;9.40;2.90;;;;;;;2.72;78.72;99772.00;103831;1299;22737;-31
2022/01/29 10:29:57;;;;;;;14.90;2.40;;;;;;;2.30;81.13;99777.81;103764;1297;24250;-30
2022/01/29 10:32:24;;;;;;;7.60;1.20;;;;;;;2.58;80.18;99765.11;103888;1299;24245;-29
2022/01/29 10:34:53;;;;;;;8.70;2.20;;;;;;;2.57;79.47;99755.37;103872;1297;24329;-29
2022/01/29 10:37:20;;;;;;;9.40;2.20;;;;;;;2.36;80.53;99756.66;103928;1297;24180;-30
2022/01/29 10:39:50;;;;;;;3.60;1.50;;;;;;;2.36;80.41;99756.30;103855;1299;22601;-24
2022/01/29 10:42:22;;;;;;;5.80;2.50;;;;;;;2.49;79.69;99746.73;103839;1299;23322;-30
2022/01/29 10:44:51;;;;;;;21.10;2.90;;;;;;;2.25;80.08;99744.20;103855;1299;22523;-25
2022/01/29 10:47:16;;;;;;;10.20;2.70;;;;;;;2.42;79.67;99736.88;103905;1298;24435;-29
2022/01/29 10:49:49;;;;;;;8.80;3.60;;;;;;;2.53;79.04;99730.43;103687;1299;24375;-29
2022/01/29 10:52:16;;;;;;;11.10;2.90;;;;;;;2.28;80.35;99723.58;103858;1297;22505;-30
2022/01/29 10:54:43;;;;;;;6.30;2.50;;;;;;;2.58;79.18;99712.30;103861;1297;22519;-25
2022/01/29 10:57:12;;;;;;;11.00;4.10;;;;;;;2.88;77.27;99692.61;103939;1297;24326;-25
2022/01/29 10:59:45;;;;;;;18.50;4.10;;;;;;;2.67;78.54;99695.38;103929;1297;24226;-25
2022/01/29 11:02:11;;;;;;;9.10;2.90;;;;;;;2.25;80.33;99697.38;103875;1298;25408;-24
2022/01/29 11:04:38;;;;;;;7.60;2.50;;;;;;;2.42;80.43;99694.69;103965;1298;24288;-30
2022/01/29 11:07:09;;;;;;;15.50;3.80;;;;;;;2.67;79.45;99684.29;103780;1298;24197;-25
2022/01/29 11:09:35;;;;;;;13.10;2.20;;;;;;;2.52;80.08;99676.45;103879;1297;24411;-24
2022/01/29 11:12:02;;;;;;;7.10;2.20;;;;;;;2.47;81.15;99674.45;103714;1297;22790;-32
2022/01/29 11:14:29;;;;;;;17.30;3.10;;;;;;;2.50;81.23;99672.92;103807;1299;24339;-25
2022/01/29 11:16:54;;;;;;;12.80;2.90;;;;;;;2.36;82.25;99672.89;103781;1297;24382;-30
2022/01/29 11:19:20;;;;;;;7.00;2.60;;;;;;;2.11;83.89;99667.05;103824;1298;24171;-29
2022/01/29 11:21:47;;;;;;;10.20;3.00;;;;;;;1.99;85.07;99668.90;103848;1296;24308;-30
2022/01/29 11:24:13;;;;;;;16.40;3.10;;;;;;;1.67;87.37;99665.34;103849;1299;24260;-29